createdAt,value
2018-12-05T00:01:23.288Z,17.80
2018-12-05T00:03:52.159Z,13.17
2018-12-05T00:06:20.635Z,16.27
2018-12-05T00:08:52.071Z,14.87
2018-12-05T00:11:21.003Z,13.00
2018-12-05T00:13:49.610Z,18.13
2018-12-05T00:16:18.181Z,18.17
2018-12-05T00:18:46.710Z,14.37
2018-12-05T00:21:15.405Z,13.77
2018-12-05T00:23:44.301Z,11.43
2018-12-05T00:26:12.796Z,12.87
2018-12-05T00:28:41.258Z,14.10
2018-12-05T00:31:09.802Z,11.97
2018-12-05T00:33:38.295Z,9.30
2018-12-05T00:36:06.795Z,15.97
2018-12-05T00:38:35.307Z,11.67
2018-12-05T00:41:05.516Z,15.00
2018-12-05T00:43:34.005Z,12.53
2018-12-05T00:46:03.811Z,14.90
2018-12-05T00:48:32.298Z,13.23
2018-12-05T00:51:00.764Z,16.47
2018-12-05T00:53:29.490Z,16.53
2018-12-05T00:55:58.162Z,13.27
2018-12-05T00:58:26.663Z,12.70
2018-12-05T01:00:55.208Z,12.63
2018-12-05T01:03:23.741Z,14.93
2018-12-05T01:05:52.254Z,12.63
2018-12-05T01:08:20.856Z,11.73
2018-12-05T01:10:49.371Z,15.57
2018-12-05T01:13:17.871Z,14.60
2018-12-05T01:15:46.381Z,16.57
2018-12-05T01:18:14.893Z,19.00
2018-12-05T01:20:43.395Z,12.50
2018-12-05T01:23:11.915Z,15.10
2018-12-05T01:25:40.490Z,15.67
2018-12-05T01:28:09.180Z,15.50
2018-12-05T01:30:37.662Z,13.07
2018-12-05T01:33:06.150Z,12.17
2018-12-05T01:35:34.767Z,12.97
2018-12-05T01:38:04.666Z,13.67
2018-12-05T01:40:33.161Z,16.80
2018-12-05T01:43:02.746Z,16.60
2018-12-05T01:45:31.488Z,14.90
2018-12-05T01:47:59.979Z,15.20
2018-12-05T01:50:28.475Z,12.77
2018-12-05T01:52:57.008Z,13.90
2018-12-05T01:55:25.520Z,15.63
2018-12-05T01:57:54.680Z,16.67
2018-12-05T02:00:23.195Z,17.23
2018-12-05T02:02:51.871Z,17.30
2018-12-05T02:05:20.362Z,14.57
2018-12-05T02:07:48.868Z,15.10
2018-12-05T02:10:17.377Z,12.87
2018-12-05T02:12:45.917Z,15.63
2018-12-05T02:15:14.425Z,16.03
2018-12-05T02:17:43.388Z,18.50
2018-12-05T02:20:11.946Z,15.30
2018-12-05T02:22:40.457Z,15.07
2018-12-05T02:25:09.372Z,17.67
2018-12-05T02:27:37.885Z,19.37
2018-12-05T02:30:06.878Z,15.77
2018-12-05T02:32:35.430Z,19.00
2018-12-05T02:35:05.264Z,20.57
2018-12-05T02:37:33.774Z,17.97
2018-12-05T02:40:03.793Z,17.57
2018-12-05T02:42:32.292Z,26.83
2018-12-05T02:45:00.806Z,17.10
2018-12-05T02:47:29.338Z,17.90
2018-12-05T02:49:57.823Z,23.53
2018-12-05T02:52:26.353Z,20.77
2018-12-05T02:54:55.072Z,17.73
2018-12-05T02:57:23.666Z,19.10
2018-12-05T02:59:52.249Z,21.17
2018-12-05T03:02:20.738Z,18.20
2018-12-05T03:04:49.280Z,21.10
2018-12-05T03:07:17.794Z,17.93
2018-12-05T03:09:46.726Z,22.63
2018-12-05T03:12:15.617Z,23.07
2018-12-05T03:14:44.132Z,28.07
2018-12-05T03:17:12.620Z,15.90
2018-12-05T03:19:41.144Z,22.50
2018-12-05T03:22:09.650Z,20.93
2018-12-05T03:24:38.427Z,17.83
2018-12-05T03:27:06.941Z,17.40
2018-12-05T03:29:35.430Z,18.73
2018-12-05T03:32:06.743Z,17.27
2018-12-05T03:34:35.259Z,15.27
2018-12-05T03:37:06.116Z,17.13
2018-12-05T03:39:34.672Z,19.20
2018-12-05T03:42:04.782Z,19.00
2018-12-05T03:44:33.361Z,17.50
2018-12-05T03:47:02.851Z,20.00
2018-12-05T03:49:31.855Z,16.50
2018-12-05T03:52:00.825Z,20.33
2018-12-05T03:54:29.344Z,20.60
2018-12-05T03:56:57.943Z,18.37
2018-12-05T03:59:26.474Z,18.27
2018-12-05T04:01:54.999Z,18.93
2018-12-05T04:04:23.634Z,16.23
2018-12-05T04:06:52.105Z,16.63
2018-12-05T04:09:20.607Z,15.30
2018-12-05T04:11:49.210Z,19.37
2018-12-05T04:14:17.857Z,16.03
2018-12-05T04:16:46.369Z,15.77
2018-12-05T04:19:14.958Z,19.87
2018-12-05T04:21:43.645Z,18.57
2018-12-05T04:24:12.243Z,19.27
2018-12-05T04:26:40.758Z,22.17
2018-12-05T04:29:09.440Z,18.93
2018-12-05T04:31:38.008Z,22.67
2018-12-05T04:34:06.505Z,22.17
2018-12-05T04:36:34.995Z,22.67
2018-12-05T04:39:09.201Z,20.70
2018-12-05T04:41:37.682Z,26.17
2018-12-05T04:44:06.322Z,24.77
2018-12-05T04:46:34.846Z,23.07
2018-12-05T04:49:04.541Z,22.87
2018-12-05T04:51:33.084Z,26.70
2018-12-05T04:54:03.177Z,27.33
2018-12-05T04:56:31.689Z,29.37
2018-12-05T04:59:00.282Z,28.13
2018-12-05T05:01:28.777Z,28.20
2018-12-05T05:03:57.292Z,30.60
2018-12-05T05:06:25.823Z,31.07
2018-12-05T05:08:54.325Z,29.83
2018-12-05T05:11:22.845Z,29.43
2018-12-05T05:13:51.284Z,26.77
2018-12-05T05:16:19.923Z,31.27
2018-12-05T05:18:48.631Z,30.33
2018-12-05T05:21:17.156Z,32.77
2018-12-05T05:23:45.906Z,31.27
2018-12-05T05:26:14.410Z,30.80
2018-12-05T05:28:42.930Z,31.23
2018-12-05T05:31:11.567Z,29.37
2018-12-05T05:33:40.490Z,28.83
2018-12-05T05:36:08.996Z,29.50
2018-12-05T05:38:38.379Z,32.87
2018-12-05T05:41:06.894Z,36.23
2018-12-05T05:43:35.454Z,30.23
2018-12-05T05:46:05.829Z,33.57
2018-12-05T05:48:34.394Z,27.60
2018-12-05T05:51:05.202Z,38.07
2018-12-05T05:53:33.720Z,32.93
2018-12-05T05:56:04.192Z,27.77
2018-12-05T05:58:32.985Z,32.03
2018-12-05T06:01:08.013Z,39.13
2018-12-05T06:03:36.544Z,31.70
2018-12-05T06:06:05.350Z,32.40
2018-12-05T06:08:33.939Z,32.07
2018-12-05T06:11:04.671Z,32.23
2018-12-05T06:13:33.177Z,25.73
2018-12-05T06:16:03.303Z,28.17
2018-12-05T06:18:32.189Z,34.73
2018-12-05T06:21:03.328Z,31.43
2018-12-05T06:23:31.918Z,33.63
2018-12-05T06:26:00.478Z,31.13
2018-12-05T06:28:28.999Z,30.97
2018-12-05T06:30:57.603Z,33.17
2018-12-05T06:33:26.237Z,34.23
2018-12-05T06:35:54.791Z,35.40
2018-12-05T06:38:23.314Z,35.27
2018-12-05T06:40:51.806Z,31.60
2018-12-05T06:43:20.407Z,34.00
2018-12-05T06:45:48.933Z,37.53
2018-12-05T06:48:17.460Z,36.67
2018-12-05T06:50:46.096Z,37.73
2018-12-05T06:53:14.708Z,34.47
2018-12-05T06:55:43.221Z,35.80
2018-12-05T06:58:11.831Z,42.87
2018-12-05T07:00:40.360Z,42.60
2018-12-05T07:03:08.873Z,44.83
2018-12-05T07:05:38.171Z,36.90
2018-12-05T07:08:06.740Z,40.43
2018-12-05T07:10:35.288Z,42.33
2018-12-05T07:13:06.146Z,35.77
2018-12-05T07:15:34.846Z,34.23
2018-12-05T07:18:06.045Z,37.10
2018-12-05T07:20:34.924Z,32.97
2018-12-05T07:23:05.596Z,36.20
2018-12-05T07:25:34.169Z,38.03
2018-12-05T07:28:05.015Z,35.97
2018-12-05T07:30:33.551Z,37.43
2018-12-05T07:33:04.006Z,36.07
2018-12-05T07:35:33.007Z,38.30
2018-12-05T07:38:03.214Z,33.47
2018-12-05T07:40:31.703Z,34.73
2018-12-05T07:43:00.446Z,27.77
2018-12-05T07:45:28.958Z,37.67
2018-12-05T07:47:57.434Z,34.17
2018-12-05T07:50:26.188Z,34.20
2018-12-05T07:52:54.753Z,34.57
2018-12-05T07:55:23.221Z,34.50
2018-12-05T07:57:51.756Z,36.77
2018-12-05T08:00:20.294Z,31.87
2018-12-05T08:02:49.067Z,30.80
2018-12-05T08:05:17.589Z,32.23
2018-12-05T08:07:46.322Z,40.10
2018-12-05T08:10:14.921Z,39.30
2018-12-05T08:12:43.430Z,30.30
2018-12-05T08:15:12.023Z,30.37
2018-12-05T08:17:40.566Z,29.07
2018-12-05T08:20:09.147Z,31.80
2018-12-05T08:22:38.004Z,32.10
2018-12-05T08:25:06.769Z,28.17
2018-12-05T08:27:35.340Z,25.57
2018-12-05T08:30:05.700Z,31.30
2018-12-05T08:32:34.216Z,29.73
2018-12-05T08:35:04.443Z,30.23
2018-12-05T08:37:33.500Z,29.07
2018-12-05T08:40:05.235Z,24.20
2018-12-05T08:42:33.768Z,30.10
2018-12-05T08:45:03.708Z,28.90
2018-12-05T08:47:33.861Z,25.47
2018-12-05T08:50:03.768Z,23.47
2018-12-05T08:52:32.337Z,22.77
2018-12-05T08:55:00.864Z,24.70
2018-12-05T08:57:30.343Z,22.20
2018-12-05T08:59:58.856Z,22.20
2018-12-05T09:02:27.362Z,24.53
2018-12-05T09:04:55.938Z,22.33
2018-12-05T09:07:24.463Z,26.93
2018-12-05T09:09:52.942Z,20.60
2018-12-05T09:12:21.577Z,23.50
2018-12-05T09:14:50.092Z,20.87
2018-12-05T09:17:18.571Z,27.20
2018-12-05T09:19:47.272Z,25.27
2018-12-05T09:22:15.892Z,24.27
2018-12-05T09:24:44.365Z,21.93
2018-12-05T09:27:12.940Z,20.27
2018-12-05T09:29:41.427Z,18.00
2018-12-05T09:32:09.957Z,20.47
2018-12-05T09:34:38.492Z,21.03
2018-12-05T09:37:06.985Z,19.70
2018-12-05T09:39:35.484Z,21.73
2018-12-05T09:42:05.598Z,18.33
2018-12-05T09:44:34.130Z,16.93
2018-12-05T09:47:03.691Z,19.07
2018-12-05T09:49:32.204Z,20.67
2018-12-05T09:52:00.976Z,20.37
2018-12-05T09:54:29.558Z,23.50
2018-12-05T09:56:58.151Z,17.47
2018-12-05T09:59:26.730Z,21.03
2018-12-05T10:01:55.271Z,21.13
2018-12-05T10:04:24.246Z,21.27
2018-12-05T10:06:52.731Z,18.50
2018-12-05T10:09:21.436Z,24.63
2018-12-05T10:11:49.943Z,17.77
2018-12-05T10:14:18.481Z,21.43
2018-12-05T10:16:47.188Z,19.10
2018-12-05T10:19:15.716Z,18.60
2018-12-05T10:21:44.357Z,17.53
2018-12-05T10:24:12.897Z,19.47
2018-12-05T10:26:41.466Z,21.90
2018-12-05T10:29:09.952Z,19.27
2018-12-05T10:31:44.049Z,16.70
2018-12-05T10:34:09.143Z,18.73
2018-12-05T10:36:37.633Z,20.27
2018-12-05T10:39:07.408Z,15.40
2018-12-05T10:41:35.935Z,20.20
2018-12-05T10:44:05.735Z,16.10
2018-12-05T10:46:34.493Z,19.87
2018-12-05T10:49:04.845Z,19.70
2018-12-05T10:51:33.369Z,20.60
2018-12-05T10:54:03.062Z,18.23
2018-12-05T10:56:31.574Z,16.73
2018-12-05T10:59:00.124Z,16.60
2018-12-05T11:01:33.919Z,21.00
2018-12-05T11:04:08.800Z,15.13
2018-12-05T11:06:42.606Z,18.57
2018-12-05T11:09:16.254Z,16.10
2018-12-05T11:11:49.811Z,19.90
2018-12-05T11:14:23.576Z,17.57
2018-12-05T11:16:57.238Z,15.37
2018-12-05T11:19:31.810Z,17.30
2018-12-05T11:22:05.570Z,18.77
2018-12-05T11:24:36.467Z,17.13
2018-12-05T11:27:05.650Z,16.27
2018-12-05T11:29:34.370Z,15.93
2018-12-05T11:32:04.892Z,20.77
2018-12-05T11:34:33.456Z,17.50
2018-12-05T11:37:04.158Z,18.20
2018-12-05T11:39:32.841Z,18.50
2018-12-05T11:42:03.511Z,14.00
2018-12-05T11:44:32.062Z,16.50
2018-12-05T11:47:00.925Z,17.47
2018-12-05T11:49:29.444Z,19.33
2018-12-05T11:51:57.942Z,20.97
2018-12-05T11:54:27.100Z,20.13
2018-12-05T11:56:55.612Z,22.73
2018-12-05T11:59:24.190Z,16.60
2018-12-05T12:01:52.752Z,17.60
2018-12-05T12:04:21.347Z,23.67
2018-12-05T12:06:49.843Z,13.03
2018-12-05T12:09:18.332Z,16.20
2018-12-05T12:11:46.844Z,17.20
2018-12-05T12:14:15.424Z,15.07
2018-12-05T12:16:44.001Z,14.87
2018-12-05T12:19:12.489Z,17.33
2018-12-05T12:21:43.449Z,14.83
2018-12-05T12:24:12.011Z,16.07
2018-12-05T12:26:40.677Z,15.80
2018-12-05T12:29:09.201Z,18.40
2018-12-05T12:31:37.738Z,14.30
2018-12-05T12:34:06.265Z,18.10
2018-12-05T12:36:35.846Z,16.33
2018-12-05T12:39:07.791Z,23.17
2018-12-05T12:41:36.315Z,15.97
2018-12-05T12:44:06.365Z,14.87
2018-12-05T12:46:34.873Z,16.73
2018-12-05T12:49:04.767Z,19.70
2018-12-05T12:51:33.296Z,22.50
2018-12-05T12:54:02.613Z,24.00
2018-12-05T12:56:31.428Z,21.40
2018-12-05T12:58:59.897Z,17.53
2018-12-05T13:01:28.415Z,17.30
2018-12-05T13:03:57.198Z,16.03
2018-12-05T13:06:25.690Z,17.03
2018-12-05T13:08:54.261Z,17.90
2018-12-05T13:11:22.930Z,20.43
2018-12-05T13:13:51.413Z,18.43
2018-12-05T13:16:19.997Z,17.17
2018-12-05T13:18:48.509Z,16.73
2018-12-05T13:21:17.020Z,15.87
2018-12-05T13:23:45.501Z,17.87
2018-12-05T13:26:14.053Z,19.43
2018-12-05T13:28:42.527Z,19.17
2018-12-05T13:31:11.131Z,19.27
2018-12-05T13:33:39.734Z,18.83
2018-12-05T13:36:08.588Z,17.20
2018-12-05T13:38:38.167Z,18.00
2018-12-05T13:41:06.680Z,16.20
2018-12-05T13:43:35.227Z,20.37
2018-12-05T13:46:05.546Z,19.40
2018-12-05T13:48:34.156Z,15.67
2018-12-05T13:51:03.770Z,15.97
2018-12-05T13:53:32.306Z,16.17
2018-12-05T13:56:00.793Z,17.47
2018-12-05T13:58:29.339Z,15.70
2018-12-05T14:00:57.850Z,17.40
2018-12-05T14:03:26.382Z,15.53
2018-12-05T14:05:55.008Z,17.93
2018-12-05T14:08:23.710Z,20.20
2018-12-05T14:10:52.312Z,17.10
2018-12-05T14:13:20.811Z,17.73
2018-12-05T14:15:49.344Z,14.37
2018-12-05T14:18:17.969Z,19.17
2018-12-05T14:20:46.608Z,18.27
2018-12-05T14:23:15.496Z,16.17
2018-12-05T14:25:44.099Z,16.37
2018-12-05T14:28:12.580Z,20.43
2018-12-05T14:30:42.092Z,19.80
2018-12-05T14:33:10.686Z,18.47
2018-12-05T14:35:39.190Z,19.20
2018-12-05T14:38:07.692Z,20.53
2018-12-05T14:40:36.199Z,15.90
2018-12-05T14:43:05.139Z,21.17
2018-12-05T14:45:33.680Z,17.87
2018-12-05T14:48:04.526Z,16.70
2018-12-05T14:50:33.130Z,21.23
2018-12-05T14:53:02.717Z,19.47
2018-12-05T14:55:31.275Z,18.33
2018-12-05T14:57:59.841Z,16.70
2018-12-05T15:00:28.620Z,17.47
2018-12-05T15:02:57.114Z,23.93
2018-12-05T15:05:25.617Z,16.83
2018-12-05T15:07:54.319Z,17.47
2018-12-05T15:10:22.898Z,20.70
2018-12-05T15:12:52.314Z,17.47
2018-12-05T15:15:20.865Z,19.87
2018-12-05T15:17:49.638Z,20.37
2018-12-05T15:20:18.190Z,17.70
2018-12-05T15:22:46.751Z,18.97
2018-12-05T15:25:15.261Z,19.17
2018-12-05T15:27:43.771Z,23.73
2018-12-05T15:30:12.749Z,18.23
2018-12-05T15:32:41.347Z,18.87
2018-12-05T15:35:10.053Z,19.00
2018-12-05T15:37:38.983Z,21.37
2018-12-05T15:40:07.559Z,16.17
2018-12-05T15:42:36.031Z,18.27
2018-12-05T15:45:07.114Z,18.30
2018-12-05T15:47:36.677Z,18.83
2018-12-05T15:50:06.959Z,13.97
2018-12-05T15:52:35.847Z,18.03
2018-12-05T15:55:05.019Z,22.53
2018-12-05T15:57:33.590Z,16.13
2018-12-05T16:00:03.755Z,20.80
2018-12-05T16:02:32.347Z,17.67
2018-12-05T16:05:00.916Z,18.13
2018-12-05T16:07:29.624Z,19.00
2018-12-05T16:09:58.153Z,20.57
2018-12-05T16:12:26.687Z,22.90
2018-12-05T16:14:55.592Z,20.03
2018-12-05T16:17:24.082Z,16.53
2018-12-05T16:19:52.632Z,23.07
2018-12-05T16:22:21.146Z,16.23
2018-12-05T16:24:49.648Z,21.80
2018-12-05T16:27:18.230Z,19.07
2018-12-05T16:29:46.881Z,18.70
2018-12-05T16:32:15.387Z,16.33
2018-12-05T16:34:43.916Z,16.63
2018-12-05T16:37:12.424Z,16.90
2018-12-05T16:39:40.962Z,18.77
2018-12-05T16:42:09.661Z,15.03
2018-12-05T16:44:38.187Z,17.47
2018-12-05T16:47:06.753Z,15.63
2018-12-05T16:49:35.278Z,18.43
2018-12-05T16:52:08.516Z,13.77
2018-12-05T16:54:37.532Z,17.20
2018-12-05T16:57:06.069Z,22.27
2018-12-05T16:59:34.653Z,18.63
2018-12-05T17:02:04.528Z,22.97
2018-12-05T17:04:33.084Z,16.97
2018-12-05T17:07:02.825Z,19.73
2018-12-05T17:09:31.335Z,20.63
2018-12-05T17:12:00.040Z,19.50
2018-12-05T17:14:28.773Z,19.03
2018-12-05T17:16:57.295Z,16.43
2018-12-05T17:19:25.800Z,21.33
2018-12-05T17:21:54.534Z,16.20
2018-12-05T17:24:23.204Z,16.30
2018-12-05T17:26:51.743Z,20.33
2018-12-05T17:29:20.311Z,17.97
2018-12-05T17:31:48.934Z,18.30
2018-12-05T17:34:17.464Z,20.60
2018-12-05T17:36:46.099Z,23.30
2018-12-05T17:39:14.796Z,24.13
2018-12-05T17:41:43.333Z,18.83
2018-12-05T17:44:11.923Z,19.20
2018-12-05T17:46:40.611Z,23.57
2018-12-05T17:49:09.160Z,16.97
2018-12-05T17:51:37.662Z,20.70
2018-12-05T17:54:06.384Z,19.63
2018-12-05T17:56:35.101Z,19.30
2018-12-05T17:59:05.277Z,18.27
2018-12-05T18:01:33.807Z,21.77
2018-12-05T18:04:04.161Z,22.27
2018-12-05T18:06:32.651Z,21.57
2018-12-05T18:09:03.279Z,20.70
2018-12-05T18:11:31.872Z,19.40
2018-12-05T18:14:00.444Z,20.60
2018-12-05T18:16:29.140Z,25.63
2018-12-05T18:18:57.656Z,17.10
2018-12-05T18:21:26.139Z,19.97
2018-12-05T18:23:54.649Z,23.77
2018-12-05T18:26:23.178Z,19.27
2018-12-05T18:28:51.835Z,19.60
2018-12-05T18:31:20.579Z,24.70
2018-12-05T18:33:49.150Z,19.60
2018-12-05T18:36:17.671Z,20.23
2018-12-05T18:38:46.199Z,22.60
2018-12-05T18:41:14.796Z,20.07
2018-12-05T18:43:43.348Z,21.87
2018-12-05T18:46:12.383Z,17.80
2018-12-05T18:48:41.035Z,19.80
2018-12-05T18:51:09.659Z,21.27
2018-12-05T18:53:38.544Z,22.50
2018-12-05T18:56:07.076Z,20.80
2018-12-05T18:58:35.904Z,16.57
2018-12-05T19:01:05.438Z,17.93
2018-12-05T19:03:34.106Z,20.80
2018-12-05T19:06:03.797Z,20.77
2018-12-05T19:08:34.365Z,20.90
2018-12-05T19:11:06.602Z,20.17
2018-12-05T19:13:39.265Z,20.73
2018-12-05T19:16:08.076Z,21.73
2018-12-05T19:18:36.937Z,18.90
2018-12-05T19:21:05.519Z,20.80
2018-12-05T19:23:34.385Z,23.77
2018-12-05T19:26:04.528Z,19.70
2018-12-05T19:28:33.868Z,19.30
2018-12-05T19:31:04.584Z,18.30
2018-12-05T19:33:33.551Z,19.83
2018-12-05T19:36:03.999Z,20.67
2018-12-05T19:38:36.293Z,18.37
2018-12-05T19:41:06.769Z,26.20
2018-12-05T19:43:35.580Z,21.77
2018-12-05T19:46:05.247Z,22.27
2018-12-05T19:48:33.905Z,24.53
2018-12-05T19:51:03.928Z,24.93
2018-12-05T19:53:32.742Z,24.40
2018-12-05T19:56:03.524Z,25.17
2018-12-05T19:58:32.082Z,24.10
2018-12-05T20:01:00.777Z,21.83
2018-12-05T20:03:29.329Z,25.03
2018-12-05T20:06:04.284Z,24.03
2018-12-05T20:08:32.901Z,24.17
2018-12-05T20:11:02.760Z,25.77
2018-12-05T20:13:36.735Z,26.23
2018-12-05T20:16:06.348Z,22.27
2018-12-05T20:18:35.007Z,22.57
2018-12-05T20:21:07.647Z,21.47
2018-12-05T20:23:36.290Z,22.00
2018-12-05T20:26:06.158Z,20.87
2018-12-05T20:28:35.321Z,25.43
2018-12-05T20:31:07.111Z,23.87
2018-12-05T20:33:35.702Z,25.40
2018-12-05T20:36:07.197Z,25.30
2018-12-05T20:38:35.948Z,24.37
2018-12-05T20:41:07.284Z,24.83
2018-12-05T20:43:35.909Z,26.60
2018-12-05T20:46:05.602Z,26.43
2018-12-05T20:48:34.704Z,27.10
2018-12-05T20:51:06.271Z,24.43
2018-12-05T20:53:35.298Z,29.47
2018-12-05T20:56:05.654Z,30.23
2018-12-05T20:58:34.720Z,27.53
2018-12-05T21:01:06.141Z,26.80
2018-12-05T21:03:34.725Z,28.63
2018-12-05T21:06:04.991Z,28.27
2018-12-05T21:08:35.368Z,26.93
2018-12-05T21:11:06.869Z,30.67
2018-12-05T21:13:35.442Z,28.43
2018-12-05T21:16:06.844Z,31.27
2018-12-05T21:18:35.444Z,29.13
2018-12-05T21:21:05.848Z,27.10
2018-12-05T21:23:34.436Z,32.87
2018-12-05T21:26:05.808Z,31.67
2018-12-05T21:28:34.804Z,25.20
2018-12-05T21:31:05.013Z,25.53
2018-12-05T21:33:33.675Z,25.13
2018-12-05T21:36:03.882Z,28.47
2018-12-05T21:38:33.143Z,23.60
2018-12-05T21:41:06.316Z,26.87
2018-12-05T21:43:35.707Z,23.50
2018-12-05T21:46:05.314Z,26.70
2018-12-05T21:48:34.057Z,26.97
2018-12-05T21:51:04.768Z,25.80
2018-12-05T21:53:33.311Z,22.97
2018-12-05T21:56:03.376Z,24.50
2018-12-05T21:58:31.897Z,26.90
2018-12-05T22:01:00.573Z,25.80
2018-12-05T22:03:29.628Z,25.20
2018-12-05T22:05:58.217Z,24.77
2018-12-05T22:08:26.854Z,25.93
2018-12-05T22:10:55.453Z,20.93
2018-12-05T22:13:23.971Z,26.40
2018-12-05T22:15:52.506Z,24.13
2018-12-05T22:18:21.038Z,23.03
2018-12-05T22:20:49.542Z,22.17
2018-12-05T22:23:18.312Z,23.83
2018-12-05T22:25:46.898Z,22.47
2018-12-05T22:28:15.501Z,22.97
2018-12-05T22:30:44.240Z,26.13
2018-12-05T22:33:12.761Z,22.43
2018-12-05T22:35:41.352Z,20.60
2018-12-05T22:38:10.203Z,21.77
2018-12-05T22:40:38.833Z,21.43
2018-12-05T22:43:07.402Z,21.50
2018-12-05T22:45:36.002Z,21.57
2018-12-05T22:48:05.591Z,21.40
2018-12-05T22:50:34.171Z,22.00
2018-12-05T22:53:05.174Z,21.47
2018-12-05T22:55:33.802Z,20.60
2018-12-05T22:58:04.429Z,20.47
2018-12-05T23:00:34.188Z,19.00
2018-12-05T23:03:04.315Z,20.33
2018-12-05T23:05:32.830Z,18.20
2018-12-05T23:08:04.648Z,19.60
2018-12-05T23:10:33.182Z,22.37
2018-12-05T23:13:04.836Z,20.27
2018-12-05T23:15:33.810Z,19.87
2018-12-05T23:18:03.879Z,20.23
2018-12-05T23:20:32.452Z,21.73
2018-12-05T23:23:03.215Z,21.10
2018-12-05T23:25:31.731Z,20.87
2018-12-05T23:28:00.415Z,20.70
2018-12-05T23:30:29.042Z,21.63
2018-12-05T23:32:57.630Z,23.67
2018-12-05T23:35:26.169Z,21.87
2018-12-05T23:37:54.747Z,21.10
2018-12-05T23:40:23.358Z,22.33
2018-12-05T23:42:51.927Z,20.47
2018-12-05T23:45:21.194Z,24.87
2018-12-05T23:47:49.697Z,21.47
2018-12-05T23:50:18.291Z,25.80
2018-12-05T23:52:47.031Z,25.00
2018-12-05T23:55:15.526Z,23.00
2018-12-05T23:57:44.198Z,24.50
